This is the latest recevied weather packets stored in our database for station/object SQ7KHZ-10. If no packets are shown the sender has not sent any weather packets the latest 10 day(s).
| Time | Temp. | Humidity | Pressure | Rain* | Wind** | Luminosity | Snow |
|---|---|---|---|---|---|---|---|
| 1777883336 | 21.67° C | 42% | 1014.6 hPa | 0 mm | - | - | - |
| 1777882126 | 21.67° C | 41% | 1014.6 hPa | 0 mm | - | - | - |
| 1777880926 | 20.56° C | 43% | 1014.5 hPa | 0 mm | - | - | - |
| 1777879710 | 20° C | 43% | 1014.6 hPa | 0 mm | - | - | - |
| 1777878509 | 19.44° C | 43% | 1014.5 hPa | 0 mm | - | - | - |
| 1777877308 | 18.89° C | 44% | 1014.6 hPa | 0 mm | - | - | - |
| 1777876107 | 18.33° C | 45% | 1014.6 hPa | 0 mm | - | - | - |
| 1777874871 | 17.78° C | 45% | 1014.7 hPa | 0 mm | - | - | - |
| 1777873636 | 17.22° C | 49% | 1014.4 hPa | 0 mm | - | - | - |
| 1777872435 | 14.44° C | 54% | 1014.3 hPa | 0 mm | - | - | - |
| 1777871227 | 13.33° C | 60% | 1014.5 hPa | 0 mm | - | - | - |
| 1777869987 | 11.67° C | 65% | 1014.3 hPa | 0 mm | - | - | - |
| 1777868779 | 10° C | 71% | 1014.1 hPa | 0 mm | - | - | - |
| 1777867569 | 8.33° C | 77% | 1014.1 hPa | 0 mm | - | - | - |
| 1777866354 | 7.22° C | 81% | 1014.1 hPa | 0 mm | - | - | - |
| 1777865153 | 7.22° C | 82% | 1014 hPa | 0 mm | - | - | - |
| 1777863951 | 6.11° C | 84% | 1014 hPa | 0 mm | - | - | - |
| 1777862750 | 6.11° C | 86% | 1014 hPa | 0 mm | - | - | - |
| 1777861549 | 6.67° C | 84% | 1014.1 hPa | 0 mm | - | - | - |
| 1777860349 | 7.22° C | 83% | 1014.1 hPa | 0 mm | - | - | - |
| 1777859138 | 6.67° C | 83% | 1014.2 hPa | 0 mm | - | - | - |
| 1777857925 | 6.11° C | 85% | 1014.2 hPa | 0 mm | - | - | - |
| 1777856725 | 7.22° C | 82% | 1014.3 hPa | 0 mm | - | - | - |
| 1777855525 | 7.22° C | 82% | 1014.4 hPa | 0 mm | - | - | - |
| 1777854313 | 8.89° C | 76% | 1014.5 hPa | 0 mm | - | - | - |
* Rain latest hour (hover to see other rain measurements)
** Current wind speed in m/s (hover to see current wind gust speed)